Time;durP1;ratioP1;P1;durP2;ratioP2;P2;SDS_P1;SDS_P2;PMS_P1;PMS_P2;Temp;Humidity;BMP_temperature;BMP_pressure;BME280_temperature;BME280_humidity;BME280_pressure;Samples;Min_cycle;Max_cycle;Signal;HPM_P1;HPM_P2
2021/01/05 00:01:19;;;;;;;26.02;16.83;;;;;;;;;;5054249;28;20016;-52
2021/01/05 00:03:46;;;;;;;24.08;15.90;;;;;;;;;;5054715;28;20025;-53
2021/01/05 00:06:12;;;;;;;28.77;17.10;;;;;;;;;;5050748;28;20028;-53
2021/01/05 00:08:38;;;;;;;23.92;16.98;;;;;;;;;;5050612;28;20017;-53
2021/01/05 00:11:04;;;;;;;30.23;14.57;;;;;;;;;;5052490;28;20025;-53
2021/01/05 00:13:31;;;;;;;29.83;20.48;;;;;;;;;;5054380;28;20096;-57
2021/01/05 00:15:57;;;;;;;28.67;15.02;;;;;;;;;;5053954;28;20029;-54
2021/01/05 00:18:23;;;;;;;41.58;21.02;;;;;;;;;;5055799;28;20024;-52
2021/01/05 00:20:49;;;;;;;31.27;20.02;;;;;;;;;;5054546;28;20021;-54
2021/01/05 00:23:16;;;;;;;28.95;19.63;;;;;;;;;;5054505;28;20359;-56
2021/01/05 00:25:43;;;;;;;39.03;18.25;;;;;;;;;;5054692;28;20028;-60
2021/01/05 00:28:10;;;;;;;28.25;16.15;;;;;;;;;;5054589;28;20025;-55
2021/01/05 00:30:36;;;;;;;28.23;19.52;;;;;;;;;;5054574;28;20047;-53
2021/01/05 00:33:03;;;;;;;30.65;19.75;;;;;;;;;;5054728;28;20060;-50
2021/01/05 00:35:31;;;;;;;27.90;18.48;;;;;;;;;;5054526;28;20031;-50
2021/01/05 00:37:57;;;;;;;39.35;19.80;;;;;;;;;;5054239;28;20033;-50
2021/01/05 00:40:24;;;;;;;53.40;26.08;;;;;;;;;;5054395;28;20100;-50
2021/01/05 00:42:51;;;;;;;46.22;26.05;;;;;;;;;;5054820;28;20029;-51
2021/01/05 00:45:20;;;;;;;48.80;25.05;;;;;;;;;;5054640;28;20056;-50
2021/01/05 00:47:46;;;;;;;33.88;28.65;;;;;;;;;;5054376;28;20476;-51
2021/01/05 00:50:13;;;;;;;28.73;19.38;;;;;;;;;;5055823;28;20064;-52
2021/01/05 00:52:39;;;;;;;35.25;25.38;;;;;;;;;;5061549;28;20426;-52
2021/01/05 00:55:06;;;;;;;44.97;23.80;;;;;;;;;;5064645;28;20082;-51
2021/01/05 00:57:33;;;;;;;50.25;24.20;;;;;;;;;;5063071;28;20104;-53
2021/01/05 00:59:59;;;;;;;69.78;35.90;;;;;;;;;;5062975;28;20021;-52
2021/01/05 01:02:25;;;;;;;44.00;29.50;;;;;;;;;;5064346;28;20099;-52
2021/01/05 01:04:52;;;;;;;53.75;33.15;;;;;;;;;;5063035;28;20029;-52
2021/01/05 01:07:18;;;;;;;67.55;35.25;;;;;;;;;;5063268;28;20086;-52
2021/01/05 01:09:44;;;;;;;45.58;28.02;;;;;;;;;;5061266;28;20086;-52
2021/01/05 01:12:16;;;;;;;64.68;35.05;;;;;;;;;;5060226;28;20067;-52
2021/01/05 01:14:43;;;;;;;47.70;31.15;;;;;;;;;;5073887;28;20020;-52
2021/01/05 01:17:10;;;;;;;53.17;32.50;;;;;;;;;;5073683;28;20482;-51
2021/01/05 01:19:36;;;;;;;63.53;35.38;;;;;;;;;;5073547;28;20055;-54
2021/01/05 01:22:03;;;;;;;52.40;33.10;;;;;;;;;;5071700;28;20065;-54
2021/01/05 01:24:29;;;;;;;67.55;35.03;;;;;;;;;;5073478;28;20024;-53
2021/01/05 01:26:55;;;;;;;59.25;35.30;;;;;;;;;;5060177;28;20059;-56
2021/01/05 01:29:23;;;;;;;48.55;35.05;;;;;;;;;;5053639;28;20029;-54
2021/01/05 01:31:50;;;;;;;60.63;39.95;;;;;;;;;;5053225;28;20429;-57
2021/01/05 01:34:17;;;;;;;54.63;35.72;;;;;;;;;;5051959;28;20104;-54
2021/01/05 01:36:43;;;;;;;61.47;35.15;;;;;;;;;;5053165;28;20021;-62
2021/01/05 01:39:09;;;;;;;56.30;38.35;;;;;;;;;;5053384;28;20029;-49
2021/01/05 01:41:36;;;;;;;48.83;31.30;;;;;;;;;;5053431;28;20035;-50
2021/01/05 01:44:03;;;;;;;61.05;34.08;;;;;;;;;;5053415;28;20032;-50
2021/01/05 01:46:31;;;;;;;43.95;33.95;;;;;;;;;;5053369;28;20025;-57
2021/01/05 01:48:57;;;;;;;77.03;39.85;;;;;;;;;;5053345;28;20031;-56
2021/01/05 01:51:24;;;;;;;62.05;36.30;;;;;;;;;;5052425;28;20444;-54
2021/01/05 01:54:22;;;;;;;78.45;41.60;;;;;;;;;;5052644;28;20021;-57
2021/01/05 01:56:48;;;;;;;47.88;27.25;;;;;;;;;;5031133;28;20394;-52
2021/01/05 01:59:17;;;;;;;62.42;37.53;;;;;;;;;;5032949;28;20025;-51
2021/01/05 02:01:44;;;;;;;54.45;34.10;;;;;;;;;;5032887;28;20041;-51
2021/01/05 02:04:18;;;;;;;57.00;32.90;;;;;;;;;;5032799;28;20028;-53
2021/01/05 02:06:47;;;;;;;58.80;36.65;;;;;;;;;;5032686;28;20033;-52
2021/01/05 02:09:16;;;;;;;58.90;38.90;;;;;;;;;;5032762;28;20049;-52
2021/01/05 02:11:53;;;;;;;56.80;42.15;;;;;;;;;;5042099;28;20059;-53
2021/01/05 02:14:22;;;;;;;70.15;37.00;;;;;;;;;;5052481;28;20025;-51
2021/01/05 02:16:55;;;;;;;69.75;40.20;;;;;;;;;;5052517;28;20104;-52
2021/01/05 02:19:25;;;;;;;60.10;40.67;;;;;;;;;;5052426;28;20052;-52
2021/01/05 02:21:57;;;;;;;72.57;36.92;;;;;;;;;;5051571;28;20059;-63
2021/01/05 02:24:47;;;;;;;62.75;37.75;;;;;;;;;;5052378;28;20103;-56
2021/01/05 02:27:13;;;;;;;55.47;32.95;;;;;;;;;;5051866;28;20064;-52
2021/01/05 02:29:43;;;;;;;50.95;31.73;;;;;;;;;;5052166;28;20029;-60
2021/01/05 02:32:16;;;;;;;55.08;32.67;;;;;;;;;;5052017;28;20044;-54
2021/01/05 02:34:48;;;;;;;60.25;31.23;;;;;;;;;;5051173;28;20033;-53
2021/01/05 02:37:19;;;;;;;53.65;32.95;;;;;;;;;;5052255;28;20047;-50
2021/01/05 02:40:18;;;;;;;63.40;40.70;;;;;;;;;;5052215;28;20024;-51
2021/01/05 02:42:47;;;;;;;67.80;36.35;;;;;;;;;;5050567;28;20091;-53
2021/01/05 02:45:14;;;;;;;73.70;48.50;;;;;;;;;;5052098;28;20066;-55
2021/01/05 02:47:40;;;;;;;59.20;42.28;;;;;;;;;;5051879;28;20086;-51
2021/01/05 02:50:24;;;;;;;85.78;43.40;;;;;;;;;;5051973;28;20112;-51
2021/01/05 02:53:11;;;;;;;83.60;45.33;;;;;;;;;;5052096;28;20501;-51
2021/01/05 02:55:49;;;;;;;72.40;45.38;;;;;;;;;;5051823;28;20047;-53
2021/01/05 02:58:22;;;;;;;84.32;46.50;;;;;;;;;;5051809;28;20083;-51
2021/01/05 03:00:54;;;;;;;71.65;48.40;;;;;;;;;;5051956;28;20096;-50
2021/01/05 03:03:26;;;;;;;115.70;65.75;;;;;;;;;;5051670;28;20021;-53
2021/01/05 03:06:11;;;;;;;108.40;65.57;;;;;;;;;;5051719;28;20032;-55
2021/01/05 03:08:43;;;;;;;107.07;69.78;;;;;;;;;;5051699;28;20031;-54
2021/01/05 03:11:12;;;;;;;103.07;71.00;;;;;;;;;;5051599;28;20025;-51
2021/01/05 03:13:59;;;;;;;114.57;73.75;;;;;;;;;;5051952;28;20417;-55
2021/01/05 03:16:31;;;;;;;92.35;60.92;;;;;;;;;;5051733;28;20025;-51
2021/01/05 03:19:26;;;;;;;105.72;70.90;;;;;;;;;;5051461;28;20466;-51
2021/01/05 03:21:55;;;;;;;127.00;74.28;;;;;;;;;;5042792;28;20041;-52
2021/01/05 03:24:22;;;;;;;99.63;63.58;;;;;;;;;;5051594;28;20029;-52
2021/01/05 03:26:49;;;;;;;113.18;73.13;;;;;;;;;;5051630;28;20486;-50
2021/01/05 03:29:16;;;;;;;115.03;65.63;;;;;;;;;;5051601;28;20032;-51
2021/01/05 03:31:48;;;;;;;103.72;64.65;;;;;;;;;;5051296;28;20124;-51
2021/01/05 03:34:15;;;;;;;89.30;55.65;;;;;;;;;;5051224;28;20037;-51
2021/01/05 03:36:41;;;;;;;117.35;63.95;;;;;;;;;;5051256;28;20107;-52
2021/01/05 03:39:08;;;;;;;98.68;64.40;;;;;;;;;;5051217;28;20454;-52
2021/01/05 03:41:34;;;;;;;92.88;60.25;;;;;;;;;;5051239;28;20032;-52
2021/01/05 03:44:01;;;;;;;81.50;58.42;;;;;;;;;;5051288;28;20053;-57
2021/01/05 03:46:27;;;;;;;92.40;62.55;;;;;;;;;;5054255;28;20032;-51
2021/01/05 03:48:54;;;;;;;120.72;67.95;;;;;;;;;;5055235;28;20079;-52
2021/01/05 03:51:21;;;;;;;103.82;61.38;;;;;;;;;;5055122;28;20095;-58
2021/01/05 03:53:47;;;;;;;84.35;61.75;;;;;;;;;;5055032;28;20025;-55
2021/01/05 03:56:13;;;;;;;96.13;58.35;;;;;;;;;;5054965;28;20032;-56
2021/01/05 03:58:40;;;;;;;85.90;57.30;;;;;;;;;;5055246;28;20031;-53
2021/01/05 04:01:06;;;;;;;88.22;54.67;;;;;;;;;;5055053;28;20025;-51
2021/01/05 04:03:33;;;;;;;85.32;55.60;;;;;;;;;;5055190;28;20017;-52
2021/01/05 04:05:59;;;;;;;91.28;52.53;;;;;;;;;;5055117;28;20501;-51
2021/01/05 04:08:25;;;;;;;88.35;51.42;;;;;;;;;;5055098;28;20052;-52
2021/01/05 04:10:51;;;;;;;76.03;49.22;;;;;;;;;;5054719;28;20025;-53
2021/01/05 04:13:18;;;;;;;70.43;50.58;;;;;;;;;;5054785;28;20025;-53
2021/01/05 04:15:44;;;;;;;74.43;44.10;;;;;;;;;;5054766;28;20029;-52
2021/01/05 04:18:10;;;;;;;63.28;46.20;;;;;;;;;;5054867;28;20490;-52
2021/01/05 04:20:37;;;;;;;75.32;47.33;;;;;;;;;;5060427;28;20032;-52
2021/01/05 04:23:03;;;;;;;77.57;47.80;;;;;;;;;;5054757;28;20021;-53
2021/01/05 04:25:29;;;;;;;65.25;40.65;;;;;;;;;;5054430;28;20102;-52
2021/01/05 04:27:56;;;;;;;77.85;43.55;;;;;;;;;;5054619;28;20363;-52
2021/01/05 04:30:24;;;;;;;77.65;41.42;;;;;;;;;;5054431;28;20505;-52
2021/01/05 04:32:51;;;;;;;76.05;42.47;;;;;;;;;;5054335;28;20048;-52
2021/01/05 04:35:18;;;;;;;88.50;46.42;;;;;;;;;;5054447;28;20032;-50
2021/01/05 04:37:44;;;;;;;60.63;37.63;;;;;;;;;;5053946;28;20489;-53
2021/01/05 04:40:32;;;;;;;75.60;43.58;;;;;;;;;;5054341;28;20021;-53
2021/01/05 04:43:00;;;;;;;80.47;44.72;;;;;;;;;;5054323;28;20032;-51
2021/01/05 04:45:27;;;;;;;60.97;40.03;;;;;;;;;;5054260;28;20088;-52
2021/01/05 04:48:12;;;;;;;73.22;44.28;;;;;;;;;;5065176;28;20523;-51
2021/01/05 04:50:38;;;;;;;61.10;40.30;;;;;;;;;;5074006;28;20085;-51
2021/01/05 04:53:14;;;;;;;74.00;41.15;;;;;;;;;;5074128;28;20104;-51
2021/01/05 04:55:48;;;;;;;56.25;37.28;;;;;;;;;;5074031;28;20027;-51
2021/01/05 04:58:41;;;;;;;69.07;38.83;;;;;;;;;;5073212;28;20024;-51
2021/01/05 05:01:12;;;;;;;62.72;40.33;;;;;;;;;;5072852;28;20501;-51
2021/01/05 05:03:57;;;;;;;72.43;45.35;;;;;;;;;;5073913;28;20021;-51
2021/01/05 05:06:33;;;;;;;59.35;36.83;;;;;;;;;;5073937;28;20077;-52
2021/01/05 05:09:14;;;;;;;76.47;35.30;;;;;;;;;;5073939;28;20017;-53
2021/01/05 05:11:45;;;;;;;74.55;38.72;;;;;;;;;;5073525;28;20042;-52
2021/01/05 05:14:22;;;;;;;66.60;34.33;;;;;;;;;;5073323;28;20482;-51
2021/01/05 05:17:11;;;;;;;60.92;32.40;;;;;;;;;;5073576;28;20037;-51
2021/01/05 05:19:42;;;;;;;55.55;30.25;;;;;;;;;;5073461;28;20029;-51
2021/01/05 05:22:12;;;;;;;58.10;26.75;;;;;;;;;;5072272;28;20020;-55
2021/01/05 05:25:07;;;;;;;61.13;34.15;;;;;;;;;;5073746;28;20024;-54
2021/01/05 05:27:43;;;;;;;51.28;31.73;;;;;;;;;;5068632;28;20064;-54
2021/01/05 05:30:11;;;;;;;45.45;25.75;;;;;;;;;;5072653;28;20115;-54
2021/01/05 05:32:48;;;;;;;46.85;27.08;;;;;;;;;;5073032;28;20046;-55
2021/01/05 05:35:15;;;;;;;59.20;27.98;;;;;;;;;;5072762;28;20028;-63
2021/01/05 05:38:00;;;;;;;56.55;30.02;;;;;;;;;;5073251;28;20038;-53
2021/01/05 05:40:35;;;;;;;60.45;36.08;;;;;;;;;;5073310;28;20047;-53
2021/01/05 05:43:22;;;;;;;71.82;35.90;;;;;;;;;;5073230;28;20023;-54
2021/01/05 05:45:55;;;;;;;43.97;33.80;;;;;;;;;;5073187;28;20020;-54
2021/01/05 05:48:45;;;;;;;45.42;30.02;;;;;;;;;;5073197;28;20035;-51
2021/01/05 05:51:20;;;;;;;45.08;32.33;;;;;;;;;;5072897;28;20029;-52
2021/01/05 05:53:53;;;;;;;52.38;30.77;;;;;;;;;;5072942;28;20023;-53
2021/01/05 05:56:28;;;;;;;48.83;30.63;;;;;;;;;;5072816;28;20035;-53
2021/01/05 05:58:56;;;;;;;53.45;31.02;;;;;;;;;;5072807;28;20031;-56
2021/01/05 06:01:29;;;;;;;49.03;29.27;;;;;;;;;;5072670;28;20020;-52
2021/01/05 06:03:58;;;;;;;49.08;28.83;;;;;;;;;;5072709;28;20096;-54
2021/01/05 06:06:24;;;;;;;45.75;23.05;;;;;;;;;;5072529;28;20020;-52
2021/01/05 06:08:51;;;;;;;49.97;29.05;;;;;;;;;;5072447;28;20024;-51
2021/01/05 06:11:17;;;;;;;35.95;25.40;;;;;;;;;;5072461;28;20493;-50
2021/01/05 06:13:43;;;;;;;56.08;27.33;;;;;;;;;;5071794;28;20410;-52
2021/01/05 06:16:09;;;;;;;40.28;25.20;;;;;;;;;;5071837;28;20428;-54
2021/01/05 06:18:36;;;;;;;44.08;25.52;;;;;;;;;;5072257;28;20373;-52
2021/01/05 06:21:02;;;;;;;37.45;25.85;;;;;;;;;;5072304;28;20017;-54
2021/01/05 06:23:28;;;;;;;30.85;20.98;;;;;;;;;;5072495;28;20027;-55
2021/01/05 06:25:55;;;;;;;35.15;24.02;;;;;;;;;;5072228;28;20036;-51
2021/01/05 06:28:21;;;;;;;29.90;19.75;;;;;;;;;;5067500;28;20029;-62
2021/01/05 06:30:47;;;;;;;32.38;23.48;;;;;;;;;;5052142;28;20025;-55
2021/01/05 06:33:14;;;;;;;40.60;25.42;;;;;;;;;;5051806;28;20052;-52
2021/01/05 06:35:40;;;;;;;43.75;25.35;;;;;;;;;;5052068;28;20028;-54
2021/01/05 06:38:06;;;;;;;37.78;23.23;;;;;;;;;;5051964;28;20112;-52
2021/01/05 06:40:33;;;;;;;42.55;22.50;;;;;;;;;;5052021;28;20028;-51
2021/01/05 06:43:00;;;;;;;27.10;22.25;;;;;;;;;;5052006;28;20032;-52
2021/01/05 06:45:30;;;;;;;37.80;23.48;;;;;;;;;;5051811;28;20021;-53
2021/01/05 06:47:57;;;;;;;33.97;23.27;;;;;;;;;;5052066;28;20120;-51
2021/01/05 06:50:25;;;;;;;51.58;27.33;;;;;;;;;;5051833;28;20052;-55
2021/01/05 06:52:51;;;;;;;34.90;22.27;;;;;;;;;;5052015;28;20510;-51
2021/01/05 06:55:18;;;;;;;44.17;24.35;;;;;;;;;;5051848;28;20055;-52
2021/01/05 06:57:44;;;;;;;50.85;26.42;;;;;;;;;;5051722;28;20024;-52
2021/01/05 07:00:15;;;;;;;25.10;20.20;;;;;;;;;;5051731;28;20411;-52
2021/01/05 07:02:41;;;;;;;40.08;24.23;;;;;;;;;;5051731;28;20104;-57
2021/01/05 07:05:08;;;;;;;36.60;21.83;;;;;;;;;;5051837;28;20025;-55
2021/01/05 07:07:34;;;;;;;32.53;20.73;;;;;;;;;;5051524;28;20029;-56
2021/01/05 07:10:00;;;;;;;34.05;19.63;;;;;;;;;;5051675;28;20105;-55
2021/01/05 07:12:27;;;;;;;38.03;19.48;;;;;;;;;;5067061;28;20028;-55
2021/01/05 07:14:53;;;;;;;35.97;20.23;;;;;;;;;;5071531;28;20143;-52
2021/01/05 07:17:19;;;;;;;37.80;20.08;;;;;;;;;;5071591;28;20021;-51
2021/01/05 07:19:45;;;;;;;29.33;21.85;;;;;;;;;;5070939;28;20496;-51
2021/01/05 07:22:12;;;;;;;42.38;21.83;;;;;;;;;;5071569;28;20028;-52
2021/01/05 07:24:38;;;;;;;33.85;23.88;;;;;;;;;;5071505;28;20023;-52
2021/01/05 07:27:05;;;;;;;23.65;16.98;;;;;;;;;;5071483;28;20075;-70
2021/01/05 07:29:31;;;;;;;26.65;18.85;;;;;;;;;;5058638;28;20039;-51
2021/01/05 07:31:57;;;;;;;33.83;19.17;;;;;;;;;;5050146;28;20067;-50
2021/01/05 07:34:23;;;;;;;30.20;20.85;;;;;;;;;;5051678;28;20024;-50
2021/01/05 07:36:54;;;;;;;28.73;23.42;;;;;;;;;;5051443;28;20390;-50
2021/01/05 07:39:22;;;;;;;32.47;18.10;;;;;;;;;;5051301;28;20014;-51
2021/01/05 07:41:49;;;;;;;32.72;21.77;;;;;;;;;;5051322;28;20423;-53
2021/01/05 07:44:16;;;;;;;39.53;23.55;;;;;;;;;;5050670;28;20025;-56
2021/01/05 07:46:42;;;;;;;37.00;23.13;;;;;;;;;;5049794;28;20029;-51
2021/01/05 07:49:09;;;;;;;43.92;26.70;;;;;;;;;;5051461;28;20033;-52
2021/01/05 07:51:35;;;;;;;35.65;23.73;;;;;;;;;;5051218;28;20049;-52
2021/01/05 07:54:02;;;;;;;34.30;21.08;;;;;;;;;;5051414;28;20056;-52
2021/01/05 07:56:28;;;;;;;49.20;22.67;;;;;;;;;;5051043;28;20020;-52
2021/01/05 07:58:54;;;;;;;31.10;20.13;;;;;;;;;;5051323;28;20036;-52
2021/01/05 08:01:21;;;;;;;34.22;18.90;;;;;;;;;;5051507;28;20035;-52
2021/01/05 08:03:47;;;;;;;39.38;22.40;;;;;;;;;;5051365;28;20021;-52
2021/01/05 08:06:13;;;;;;;31.58;18.67;;;;;;;;;;5051030;28;20096;-55
2021/01/05 08:08:41;;;;;;;32.38;20.40;;;;;;;;;;5050904;28;20028;-56
2021/01/05 08:11:07;;;;;;;29.63;22.98;;;;;;;;;;5050786;28;20359;-53
2021/01/05 08:13:33;;;;;;;33.63;21.88;;;;;;;;;;5051042;28;20021;-53
2021/01/05 08:16:00;;;;;;;28.17;18.15;;;;;;;;;;5050984;28;20025;-54
2021/01/05 08:18:26;;;;;;;41.05;21.08;;;;;;;;;;5050913;28;20171;-56
2021/01/05 08:20:52;;;;;;;28.60;21.73;;;;;;;;;;5050651;28;20025;-52
2021/01/05 08:23:18;;;;;;;30.65;19.65;;;;;;;;;;5050984;28;20021;-52
2021/01/05 08:25:45;;;;;;;34.08;21.63;;;;;;;;;;5050429;28;20035;-52
2021/01/05 08:28:11;;;;;;;42.53;18.33;;;;;;;;;;5050758;28;20025;-52
2021/01/05 08:30:39;;;;;;;35.05;20.50;;;;;;;;;;5050798;28;20029;-51
2021/01/05 08:33:09;;;;;;;29.42;20.23;;;;;;;;;;5053019;28;20127;-51
2021/01/05 08:35:36;;;;;;;32.00;21.80;;;;;;;;;;5054413;28;20025;-53
2021/01/05 08:38:03;;;;;;;37.92;18.80;;;;;;;;;;5054411;28;20036;-61
2021/01/05 08:40:31;;;;;;;26.58;20.77;;;;;;;;;;5054328;28;20048;-54
2021/01/05 08:42:59;;;;;;;37.13;18.30;;;;;;;;;;5054218;28;20092;-55
2021/01/05 08:45:25;;;;;;;23.88;19.20;;;;;;;;;;5054213;28;20017;-58
2021/01/05 08:47:51;;;;;;;40.65;17.23;;;;;;;;;;5052938;28;20028;-56
2021/01/05 08:50:21;;;;;;;25.98;16.25;;;;;;;;;;5054194;28;20020;-57
2021/01/05 08:52:47;;;;;;;30.05;15.82;;;;;;;;;;5054403;28;20025;-53
2021/01/05 08:55:14;;;;;;;33.75;20.73;;;;;;;;;;5054246;28;20394;-52
2021/01/05 08:57:41;;;;;;;22.30;16.65;;;;;;;;;;5054041;28;20025;-52
2021/01/05 09:00:07;;;;;;;35.20;19.75;;;;;;;;;;5054048;28;20075;-58
2021/01/05 09:02:33;;;;;;;21.30;14.45;;;;;;;;;;5052677;28;20029;-63
2021/01/05 09:05:00;;;;;;;29.30;16.67;;;;;;;;;;5053940;28;20025;-58
2021/01/05 09:07:26;;;;;;;20.33;16.80;;;;;;;;;;5053868;28;20025;-52
2021/01/05 09:09:52;;;;;;;28.90;17.08;;;;;;;;;;5053869;28;20021;-54
2021/01/05 09:12:18;;;;;;;33.50;17.70;;;;;;;;;;5053549;28;20379;-55
2021/01/05 09:14:45;;;;;;;35.05;16.45;;;;;;;;;;5053854;28;20032;-53
2021/01/05 09:17:11;;;;;;;24.27;17.83;;;;;;;;;;5053534;28;20036;-55
2021/01/05 09:19:39;;;;;;;26.45;15.13;;;;;;;;;;5053591;28;20481;-62
2021/01/05 09:22:05;;;;;;;29.92;18.73;;;;;;;;;;5053536;28;20029;-58
2021/01/05 09:24:31;;;;;;;33.75;17.58;;;;;;;;;;5053457;28;20021;-54
2021/01/05 09:26:58;;;;;;;27.45;15.43;;;;;;;;;;5053573;28;20381;-52
2021/01/05 09:29:25;;;;;;;29.92;16.80;;;;;;;;;;5053431;28;20028;-55
2021/01/05 09:31:52;;;;;;;29.85;17.58;;;;;;;;;;5052981;28;20136;-55
2021/01/05 09:34:20;;;;;;;34.92;16.02;;;;;;;;;;5053378;28;20048;-56
2021/01/05 09:36:46;;;;;;;30.15;18.05;;;;;;;;;;5053301;28;20059;-54
2021/01/05 09:39:14;;;;;;;37.58;17.55;;;;;;;;;;5053132;28;20091;-53
2021/01/05 09:41:45;;;;;;;32.58;19.85;;;;;;;;;;5053364;28;20017;-54
2021/01/05 09:44:12;;;;;;;26.92;15.05;;;;;;;;;;5052663;28;20044;-60
2021/01/05 09:46:39;;;;;;;42.67;20.58;;;;;;;;;;5053153;28;20029;-60
2021/01/05 09:49:06;;;;;;;22.65;16.70;;;;;;;;;;5053121;28;20112;-53
2021/01/05 09:51:33;;;;;;;34.80;17.75;;;;;;;;;;5052929;28;20377;-53
2021/01/05 09:53:59;;;;;;;33.65;21.45;;;;;;;;;;5053027;28;20029;-55
2021/01/05 09:56:26;;;;;;;27.92;17.90;;;;;;;;;;5052932;28;20024;-55
2021/01/05 09:58:52;;;;;;;35.85;19.63;;;;;;;;;;5052835;28;20049;-55
2021/01/05 10:01:29;;;;;;;42.50;18.40;;;;;;;;;;5052672;28;20017;-54
2021/01/05 10:03:55;;;;;;;31.75;17.70;;;;;;;;;;5051610;28;20028;-55
2021/01/05 10:06:27;;;;;;;31.73;18.25;;;;;;;;;;5052762;28;20022;-53
2021/01/05 10:08:53;;;;;;;31.10;20.88;;;;;;;;;;5052674;28;20024;-54
2021/01/05 10:11:19;;;;;;;23.25;15.85;;;;;;;;;;5052566;28;20062;-54
2021/01/05 10:13:46;;;;;;;39.05;18.55;;;;;;;;;;5052743;28;20032;-56
2021/01/05 10:16:12;;;;;;;25.77;16.52;;;;;;;;;;5053067;28;20446;-57
2021/01/05 10:18:39;;;;;;;29.08;15.52;;;;;;;;;;5054264;28;20025;-59
2021/01/05 10:21:06;;;;;;;35.47;21.83;;;;;;;;;;5052327;28;20032;-53
2021/01/05 10:23:32;;;;;;;28.33;17.23;;;;;;;;;;5052443;28;20486;-53
2021/01/05 10:25:58;;;;;;;29.85;23.70;;;;;;;;;;5052299;28;20029;-52
2021/01/05 10:28:24;;;;;;;42.05;21.38;;;;;;;;;;5052316;28;20045;-54
2021/01/05 10:30:51;;;;;;;31.38;19.17;;;;;;;;;;5052331;28;20025;-61
2021/01/05 10:33:17;;;;;;;33.25;20.98;;;;;;;;;;5052509;28;20498;-52
2021/01/05 10:35:43;;;;;;;33.33;18.10;;;;;;;;;;5052139;28;20033;-57
2021/01/05 10:38:09;;;;;;;32.00;20.23;;;;;;;;;;5052065;28;20025;-55
2021/01/05 10:40:36;;;;;;;32.92;19.95;;;;;;;;;;5051973;28;20024;-55
2021/01/05 10:43:02;;;;;;;32.20;19.85;;;;;;;;;;5052042;28;20079;-56
2021/01/05 10:45:29;;;;;;;43.65;25.33;;;;;;;;;;5052065;28;20032;-58
2021/01/05 10:47:56;;;;;;;33.45;19.02;;;;;;;;;;5051718;28;20418;-55
2021/01/05 10:50:24;;;;;;;37.20;23.38;;;;;;;;;;5061203;28;20055;-55
2021/01/05 10:52:51;;;;;;;34.17;20.45;;;;;;;;;;5056758;28;20390;-55
2021/01/05 10:55:18;;;;;;;42.13;18.45;;;;;;;;;;5060653;28;20028;-54
2021/01/05 10:57:45;;;;;;;39.95;22.42;;;;;;;;;;5050422;28;20025;-54
2021/01/05 11:00:14;;;;;;;33.45;24.95;;;;;;;;;;5061048;28;20061;-54
2021/01/05 11:02:40;;;;;;;36.17;20.55;;;;;;;;;;5049255;28;20504;-55
2021/01/05 11:05:07;;;;;;;29.25;22.10;;;;;;;;;;5060791;28;20020;-55
2021/01/05 11:07:33;;;;;;;45.75;24.15;;;;;;;;;;5059412;28;20021;-54
2021/01/05 11:10:01;;;;;;;24.20;17.42;;;;;;;;;;5051709;28;20017;-55
2021/01/05 11:12:27;;;;;;;42.60;20.38;;;;;;;;;;5051741;28;20037;-55
2021/01/05 11:14:54;;;;;;;50.00;27.08;;;;;;;;;;5051716;28;20032;-55
2021/01/05 11:17:20;;;;;;;53.58;25.17;;;;;;;;;;5051666;28;20025;-55
2021/01/05 11:19:46;;;;;;;34.80;22.92;;;;;;;;;;5051538;28;20096;-55
2021/01/05 11:22:14;;;;;;;47.08;23.92;;;;;;;;;;5051605;28;20474;-55
2021/01/05 11:24:41;;;;;;;42.78;23.58;;;;;;;;;;5051620;28;20036;-55
2021/01/05 11:27:07;;;;;;;46.03;22.52;;;;;;;;;;5051581;28;20082;-55
2021/01/05 11:29:34;;;;;;;36.70;23.45;;;;;;;;;;5051550;28;20032;-55
2021/01/05 11:32:00;;;;;;;34.60;24.90;;;;;;;;;;5051346;28;20138;-55
2021/01/05 11:34:27;;;;;;;44.20;26.83;;;;;;;;;;5051547;28;20501;-55
2021/01/05 11:36:54;;;;;;;43.00;24.60;;;;;;;;;;5051361;28;20040;-55
2021/01/05 11:39:21;;;;;;;37.10;21.98;;;;;;;;;;5051637;28;20020;-55
2021/01/05 11:56:20;;;;;;;60.17;37.55;;;;;;;;;;5109477;27;20927;-67
2021/01/05 11:58:46;;;;;;;57.28;34.50;;;;;;;;;;5109284;28;20023;-65
2021/01/05 12:01:12;;;;;;;46.25;27.02;;;;;;;;;;5109372;28;20023;-66
2021/01/05 12:03:39;;;;;;;45.28;32.95;;;;;;;;;;5109267;28;20420;-67
2021/01/05 12:06:05;;;;;;;43.80;29.90;;;;;;;;;;5109349;28;20038;-61
2021/01/05 12:08:32;;;;;;;45.40;26.48;;;;;;;;;;5109159;28;20586;-61
2021/01/05 12:10:58;;;;;;;44.08;25.42;;;;;;;;;;5109123;28;20101;-62
2021/01/05 12:13:25;;;;;;;56.72;30.80;;;;;;;;;;5109294;28;20016;-66
2021/01/05 12:15:51;;;;;;;53.65;29.00;;;;;;;;;;5109126;28;20032;-65
2021/01/05 12:18:17;;;;;;;45.47;26.05;;;;;;;;;;5109058;28;20023;-63
2021/01/05 12:20:43;;;;;;;58.22;37.75;;;;;;;;;;5108999;28;20103;-66
2021/01/05 12:23:10;;;;;;;52.80;32.15;;;;;;;;;;5109097;28;20020;-69
2021/01/05 12:25:36;;;;;;;49.67;27.63;;;;;;;;;;5108747;28;20099;-67
2021/01/05 12:28:02;;;;;;;46.80;29.77;;;;;;;;;;5109065;28;20481;-67
2021/01/05 12:30:28;;;;;;;71.70;41.58;;;;;;;;;;5109011;28;20561;-65
2021/01/05 12:32:55;;;;;;;68.00;38.30;;;;;;;;;;5109077;28;20031;-65
2021/01/05 12:35:21;;;;;;;73.22;44.13;;;;;;;;;;5108896;28;20055;-63
2021/01/05 12:37:47;;;;;;;85.45;45.03;;;;;;;;;;5108762;28;20031;-71
2021/01/05 12:40:15;;;;;;;64.22;41.55;;;;;;;;;;5108440;28;20035;-64
2021/01/05 12:42:41;;;;;;;87.80;55.40;;;;;;;;;;5108391;28;20129;-64
2021/01/05 12:45:08;;;;;;;67.75;47.10;;;;;;;;;;5108074;28;20545;-62
2021/01/05 12:47:35;;;;;;;87.90;47.92;;;;;;;;;;5108621;28;20068;-69
2021/01/05 12:50:01;;;;;;;87.28;54.72;;;;;;;;;;5108471;28;20023;-63
2021/01/05 12:52:27;;;;;;;80.40;52.75;;;;;;;;;;5108521;28;20031;-68
2021/01/05 12:54:54;;;;;;;90.25;49.20;;;;;;;;;;5108089;28;20048;-68
2021/01/05 12:57:20;;;;;;;90.30;53.15;;;;;;;;;;5094433;28;20012;-73
2021/01/05 12:59:47;;;;;;;91.47;56.28;;;;;;;;;;5093288;28;20024;-68
2021/01/05 13:02:22;;;;;;;106.03;58.38;;;;;;;;;;5094729;28;20478;-68
2021/01/05 13:04:48;;;;;;;94.50;58.08;;;;;;;;;;5094575;28;20477;-64
2021/01/05 13:07:16;;;;;;;104.15;58.20;;;;;;;;;;5093643;28;20063;-63
2021/01/05 13:09:43;;;;;;;73.43;53.70;;;;;;;;;;5094361;28;20077;-62
2021/01/05 13:12:09;;;;;;;87.50;54.85;;;;;;;;;;5094537;28;20024;-62
2021/01/05 13:14:35;;;;;;;87.32;55.70;;;;;;;;;;5094423;28;20050;-63
2021/01/05 13:17:02;;;;;;;104.95;60.72;;;;;;;;;;5093883;28;20028;-64
2021/01/05 13:19:28;;;;;;;100.15;59.58;;;;;;;;;;5094347;28;20024;-63
2021/01/05 13:21:55;;;;;;;77.88;52.60;;;;;;;;;;5093005;28;20024;-62
2021/01/05 13:24:25;;;;;;;110.28;59.85;;;;;;;;;;5094171;28;20028;-61
2021/01/05 13:26:52;;;;;;;102.25;56.35;;;;;;;;;;5094154;28;20030;-60
2021/01/05 13:29:21;;;;;;;112.63;61.35;;;;;;;;;;5094192;28;20052;-61
2021/01/05 13:31:50;;;;;;;81.57;55.58;;;;;;;;;;5094273;28;20021;-63
2021/01/05 13:34:19;;;;;;;118.60;60.35;;;;;;;;;;5094255;28;20024;-63
2021/01/05 13:36:45;;;;;;;108.47;57.63;;;;;;;;;;5094055;28;20032;-67
2021/01/05 13:39:16;;;;;;;100.78;60.20;;;;;;;;;;5094111;28;20448;-64
2021/01/05 13:41:42;;;;;;;86.47;58.00;;;;;;;;;;5092062;28;20024;-51
2021/01/05 13:44:09;;;;;;;93.85;58.83;;;;;;;;;;5092808;28;20028;-55
2021/01/05 13:46:37;;;;;;;117.75;68.90;;;;;;;;;;5093803;28;20028;-63
2021/01/05 13:49:04;;;;;;;100.15;69.60;;;;;;;;;;5093580;28;20024;-60
2021/01/05 13:51:32;;;;;;;119.32;74.55;;;;;;;;;;5093264;28;20072;-57
2021/01/05 13:53:58;;;;;;;112.38;68.28;;;;;;;;;;5093435;28;20039;-54
2021/01/05 13:56:25;;;;;;;124.45;73.03;;;;;;;;;;5092238;28;20060;-52
2021/01/05 13:58:52;;;;;;;119.63;68.05;;;;;;;;;;5093444;28;20401;-51
2021/01/05 14:01:19;;;;;;;106.75;71.07;;;;;;;;;;5093440;28;20038;-52
2021/01/05 14:03:47;;;;;;;119.47;66.25;;;;;;;;;;5093240;28;20025;-52
2021/01/05 14:06:17;;;;;;;117.20;70.15;;;;;;;;;;5093209;28;20477;-51
2021/01/05 14:08:44;;;;;;;128.15;77.38;;;;;;;;;;5092094;28;20126;-52
2021/01/05 14:11:10;;;;;;;117.97;70.45;;;;;;;;;;5093192;28;20031;-54
2021/01/05 14:13:36;;;;;;;123.07;69.18;;;;;;;;;;5093097;28;20095;-57
2021/01/05 14:16:03;;;;;;;122.70;68.70;;;;;;;;;;5077465;28;20024;-56
2021/01/05 14:18:29;;;;;;;95.18;60.30;;;;;;;;;;5079690;28;20174;-54
2021/01/05 14:20:55;;;;;;;120.25;71.18;;;;;;;;;;5072632;28;20110;-50
2021/01/05 14:23:22;;;;;;;118.45;69.93;;;;;;;;;;5072735;28;20031;-54
2021/01/05 14:25:48;;;;;;;96.65;66.25;;;;;;;;;;5072566;28;20031;-55
2021/01/05 14:28:14;;;;;;;133.02;72.80;;;;;;;;;;5072561;28;20086;-54
2021/01/05 14:30:40;;;;;;;116.55;64.32;;;;;;;;;;5072316;28;20031;-53
2021/01/05 14:33:07;;;;;;;98.40;58.97;;;;;;;;;;5072525;28;20017;-54
2021/01/05 14:35:34;;;;;;;108.57;59.72;;;;;;;;;;5072465;28;20028;-54
2021/01/05 14:38:00;;;;;;;89.68;57.88;;;;;;;;;;5072514;28;20061;-53